Terminal Aerodrome Forecast
Issued by NWS

Home | Current Version | Previous Version | Text Only | Print | Product List | Glossary On
Versions: 1 2 3 4 5 6 7 8 9 10 11 12 13 14 15 16 17 18
000
FTUS44 KBMX 252348 CCA
TAFANB
TAF COR
KANB 252348Z 2600/2624 09006KT P6SM -RA SCT005 SCT035 BKN110
     FM260800 09006KT P6SM SCT004 SCT007 OVC020
      TEMPO 2610/2614 BKN015
     FM261400 19008KT P6SM BKN025 BKN050
     FM261900 20008KT P6SM VCTS BKN040CB=

USA.gov is the U.S. government's official web portal to all federal, state and local government web resources and services.